Time;durP1;ratioP1;P1;durP2;ratioP2;P2;SDS_P1;SDS_P2;PMS_P1;PMS_P2;Temp;Humidity;BMP_temperature;BMP_pressure;BME280_temperature;BME280_humidity;BME280_pressure;Samples;Min_cycle;Max_cycle;Signal;HPM_P1;HPM_P2
2023/08/09 00:02:12;;;;;;;9.52;6.22;;;;;;;13.95;100.00;97750.59;5052928;28;20373;-86
2023/08/09 00:04:37;;;;;;;8.73;6.07;;;;;;;13.93;100.00;97751.69;5053003;28;20020;-85
2023/08/09 00:07:03;;;;;;;6.82;5.60;;;;;;;14.00;100.00;97753.81;5054203;28;20086;-86
2023/08/09 00:09:28;;;;;;;6.88;5.25;;;;;;;13.98;100.00;97744.13;5054014;28;20060;-85
2023/08/09 00:11:54;;;;;;;11.48;5.75;;;;;;;13.94;100.00;97738.13;5054183;28;20464;-86
2023/08/09 00:14:19;;;;;;;7.63;6.00;;;;;;;13.92;100.00;97749.97;5054630;28;20082;-86
2023/08/09 00:16:45;;;;;;;6.20;5.45;;;;;;;13.97;100.00;97756.72;5070814;28;20086;-85
2023/08/09 00:19:10;;;;;;;6.38;5.35;;;;;;;13.92;100.00;97752.66;5053503;28;20055;-86
2023/08/09 00:21:36;;;;;;;8.05;5.70;;;;;;;13.98;100.00;97741.44;5072368;28;20131;-84
2023/08/09 00:24:03;;;;;;;8.70;5.57;;;;;;;13.89;100.00;97734.91;5069854;28;20024;-85
2023/08/09 00:26:28;;;;;;;12.00;6.20;;;;;;;13.80;100.00;97740.09;5052535;28;20047;-85
2023/08/09 00:28:54;;;;;;;10.45;6.13;;;;;;;13.78;100.00;97744.72;5069488;28;20550;-85
2023/08/09 00:31:19;;;;;;;7.38;6.05;;;;;;;13.82;100.00;97746.19;5070608;28;20035;-86
2023/08/09 00:33:45;;;;;;;7.13;5.88;;;;;;;13.81;100.00;97757.94;5070702;28;20035;-86
2023/08/09 00:36:10;;;;;;;8.05;6.43;;;;;;;13.78;100.00;97740.19;5053033;28;20054;-85
2023/08/09 00:38:36;;;;;;;7.80;5.72;;;;;;;13.79;100.00;97744.59;5052920;28;20895;-85
2023/08/09 00:41:02;;;;;;;9.13;5.85;;;;;;;13.70;100.00;97744.41;5052936;28;20060;-86
2023/08/09 00:43:28;;;;;;;7.32;6.03;;;;;;;13.72;100.00;97742.47;5052721;28;20466;-86
2023/08/09 00:45:53;;;;;;;7.53;6.13;;;;;;;13.73;100.00;97733.41;5053056;28;20112;-85
2023/08/09 00:48:23;;;;;;;9.23;6.07;;;;;;;13.69;100.00;97742.69;5070607;28;20052;-86
2023/08/09 00:50:48;;;;;;;8.63;6.00;;;;;;;13.69;100.00;97737.31;5052581;28;20025;-86
2023/08/09 00:53:14;;;;;;;8.57;6.43;;;;;;;13.69;100.00;97734.63;5036103;28;20032;-86
2023/08/09 00:55:39;;;;;;;7.35;6.30;;;;;;;13.68;100.00;97744.53;5052072;28;20032;-85
2023/08/09 00:58:05;;;;;;;23.88;7.22;;;;;;;13.68;100.00;97738.28;5070542;28;20036;-86
2023/08/09 01:00:31;;;;;;;14.52;7.10;;;;;;;13.58;100.00;97738.94;5070639;28;20041;-86
2023/08/09 01:02:57;;;;;;;10.05;7.13;;;;;;;13.57;100.00;97745.28;5052491;28;20476;-87
2023/08/09 01:05:27;;;;;;;10.82;7.07;;;;;;;13.61;100.00;97751.28;5052503;28;20494;-87
2023/08/09 01:07:57;;;;;;;10.68;7.00;;;;;;;13.63;100.00;97753.88;5070371;28;20314;-86
2023/08/09 01:10:47;;;;;;;10.25;6.50;;;;;;;13.55;100.00;97740.97;5070441;28;20112;-85
2023/08/09 01:13:12;;;;;;;9.85;5.78;;;;;;;13.50;100.00;97754.72;5054382;28;20021;-85
2023/08/09 01:15:39;;;;;;;7.18;5.90;;;;;;;13.53;100.00;97742.91;5056366;28;20090;-86
2023/08/09 01:18:08;;;;;;;8.07;6.07;;;;;;;13.41;100.00;97723.13;5056840;28;20108;-87
2023/08/09 01:20:34;;;;;;;6.35;5.55;;;;;;;13.46;100.00;97730.88;5072848;28;20093;-86
2023/08/09 01:23:03;;;;;;;9.27;6.65;;;;;;;13.42;100.00;97737.41;5039325;28;20434;-86
2023/08/09 01:25:30;;;;;;;8.75;6.53;;;;;;;13.39;100.00;97733.13;5075188;28;20025;-86
2023/08/09 01:27:57;;;;;;;9.65;6.63;;;;;;;13.30;100.00;97736.47;5039163;28;20052;-85
2023/08/09 01:30:23;;;;;;;8.52;6.63;;;;;;;13.27;100.00;97744.72;5056150;28;20463;-85
2023/08/09 01:32:49;;;;;;;8.52;6.63;;;;;;;13.29;100.00;97737.41;5072962;28;20078;-85
2023/08/09 01:35:15;;;;;;;11.68;7.40;;;;;;;13.30;100.00;97744.53;5073587;28;20133;-86
2023/08/09 01:37:52;;;;;;;8.13;6.55;;;;;;;13.33;100.00;97738.06;5039213;28;20060;-85
2023/08/09 01:40:18;;;;;;;7.82;6.47;;;;;;;13.30;100.00;97735.59;5050421;28;20038;-85
2023/08/09 01:42:44;;;;;;;11.50;6.60;;;;;;;13.23;100.00;97745.03;5073291;28;20092;-85
2023/08/09 01:45:12;;;;;;;8.27;6.47;;;;;;;13.22;100.00;97743.34;5073003;28;20117;-85
2023/08/09 01:47:39;;;;;;;8.95;6.85;;;;;;;13.20;100.00;97746.13;5056351;28;20510;-85
2023/08/09 01:50:06;;;;;;;8.70;7.03;;;;;;;13.16;100.00;97741.09;5038479;28;20059;-85
2023/08/09 01:52:32;;;;;;;11.02;6.95;;;;;;;13.16;100.00;97755.38;5073515;28;20040;-86
2023/08/09 01:54:57;;;;;;;9.90;7.22;;;;;;;13.12;100.00;97747.63;5055308;28;20529;-86
2023/08/09 01:57:23;;;;;;;8.90;6.47;;;;;;;13.07;100.00;97745.22;5073359;28;20028;-85
2023/08/09 01:59:49;;;;;;;11.02;6.60;;;;;;;13.05;100.00;97752.50;5038647;28;20024;-84
2023/08/09 02:02:14;;;;;;;10.93;6.65;;;;;;;12.96;100.00;97753.16;5055966;28;20035;-85
2023/08/09 02:04:40;;;;;;;11.02;7.63;;;;;;;12.93;100.00;97756.03;5073602;28;20104;-85
2023/08/09 02:07:05;;;;;;;11.88;6.90;;;;;;;12.89;100.00;97754.50;5055780;28;20029;-85
2023/08/09 02:09:31;;;;;;;10.40;6.95;;;;;;;12.94;100.00;97757.78;5072322;28;20034;-86
2023/08/09 02:11:57;;;;;;;8.20;6.63;;;;;;;12.96;100.00;97754.00;5055381;28;20039;-85
2023/08/09 02:14:22;;;;;;;9.07;6.35;;;;;;;12.93;100.00;97754.22;5055440;28;20029;-85
2023/08/09 02:16:48;;;;;;;7.90;6.10;;;;;;;12.87;100.00;97743.91;5055453;28;20056;-85
2023/08/09 02:19:13;;;;;;;10.60;5.95;;;;;;;12.86;100.00;97749.34;5070845;28;20116;-85
2023/08/09 02:21:42;;;;;;;9.80;6.28;;;;;;;12.78;100.00;97749.88;5055192;28;20430;-86
2023/08/09 02:24:08;;;;;;;9.60;7.20;;;;;;;12.78;100.00;97749.88;5054455;28;20040;-86
2023/08/09 02:26:34;;;;;;;10.52;6.68;;;;;;;12.93;100.00;97753.34;5054956;28;20036;-85
2023/08/09 02:29:00;;;;;;;7.97;6.32;;;;;;;13.00;100.00;97755.53;5054886;28;20526;-85
2023/08/09 02:31:27;;;;;;;10.15;7.15;;;;;;;12.90;100.00;97756.25;5073078;28;20028;-86
2023/08/09 02:33:52;;;;;;;9.02;6.68;;;;;;;12.97;100.00;97762.94;5055167;28;20032;-86
2023/08/09 02:36:18;;;;;;;11.25;6.80;;;;;;;12.95;100.00;97763.03;5072281;28;20036;-85
2023/08/09 02:38:43;;;;;;;24.67;7.88;;;;;;;12.89;100.00;97762.56;5054663;28;20499;-86
2023/08/09 02:41:09;;;;;;;22.55;9.98;;;;;;;12.79;100.00;97762.38;5072657;28;20029;-85
2023/08/09 02:43:35;;;;;;;30.25;11.90;;;;;;;12.72;100.00;97761.03;5054818;28;20032;-86
2023/08/09 02:46:00;;;;;;;41.38;13.75;;;;;;;12.67;100.00;97756.94;5072293;28;20553;-86
2023/08/09 02:48:26;;;;;;;34.30;12.15;;;;;;;12.66;100.00;97769.50;5054921;28;20095;-86
2023/08/09 02:50:52;;;;;;;22.80;11.60;;;;;;;12.69;100.00;97769.31;5037965;28;20036;-85
2023/08/09 02:53:17;;;;;;;24.30;11.75;;;;;;;12.56;100.00;97762.16;5054196;28;20024;-85
2023/08/09 02:55:43;;;;;;;25.13;14.15;;;;;;;12.59;100.00;97764.63;5054673;28;20468;-86
2023/08/09 02:58:09;;;;;;;16.38;11.23;;;;;;;12.52;100.00;97782.13;5054864;28;20053;-86
2023/08/09 03:00:36;;;;;;;18.35;11.45;;;;;;;12.38;100.00;97785.69;5072006;28;20044;-86
2023/08/09 03:03:04;;;;;;;16.67;9.73;;;;;;;12.18;100.00;97784.31;5037489;28;20028;-85
2023/08/09 03:05:30;;;;;;;22.98;12.18;;;;;;;12.17;100.00;97784.41;5086064;28;20020;-86
2023/08/09 03:07:56;;;;;;;13.75;9.57;;;;;;;12.20;100.00;97790.44;5054266;28;20506;-86
2023/08/09 03:10:22;;;;;;;15.25;10.05;;;;;;;12.23;100.00;97784.88;5053812;28;20024;-85
2023/08/09 03:12:48;;;;;;;11.80;8.50;;;;;;;12.27;100.00;97789.09;5071961;28;20435;-86
2023/08/09 03:15:15;;;;;;;11.68;7.25;;;;;;;12.30;100.00;97799.63;5070278;28;20028;-86
2023/08/09 03:17:41;;;;;;;10.57;7.65;;;;;;;12.26;100.00;97791.88;5071834;28;20021;-86
2023/08/09 03:20:13;;;;;;;17.05;7.00;;;;;;;12.34;100.00;97798.44;5054758;28;20024;-86
2023/08/09 03:22:42;;;;;;;14.47;7.03;;;;;;;12.34;100.00;97801.13;5054904;28;20102;-87
2023/08/09 03:25:09;;;;;;;14.55;8.38;;;;;;;12.32;100.00;97789.66;5070351;28;20028;-87
2023/08/09 03:27:36;;;;;;;11.48;6.80;;;;;;;12.42;100.00;97795.28;5053837;28;20024;-86
2023/08/09 03:30:03;;;;;;;11.90;7.38;;;;;;;12.38;100.00;97789.25;5053731;28;20074;-85
2023/08/09 03:32:29;;;;;;;8.52;6.78;;;;;;;12.44;100.00;97793.34;5053562;28;20024;-85
2023/08/09 03:34:55;;;;;;;19.42;7.93;;;;;;;12.47;100.00;97785.97;5054341;28;20031;-85
2023/08/09 03:37:20;;;;;;;30.77;8.13;;;;;;;12.47;100.00;97794.00;5071646;28;20090;-85
2023/08/09 03:39:46;;;;;;;53.08;8.40;;;;;;;12.42;100.00;97787.22;5070866;28;20377;-87
2023/08/09 03:42:11;;;;;;;31.45;7.80;;;;;;;12.45;100.00;97789.72;5053242;28;20030;-84
2023/08/09 03:44:37;;;;;;;18.30;6.93;;;;;;;12.52;100.00;97797.25;5053162;28;20029;-83
2023/08/09 03:47:02;;;;;;;14.32;7.78;;;;;;;12.52;100.00;97791.88;5071183;28;20078;-88
2023/08/09 03:49:28;;;;;;;29.27;8.98;;;;;;;12.57;100.00;97788.91;5036573;28;20032;-83
2023/08/09 03:51:54;;;;;;;18.30;8.15;;;;;;;12.64;100.00;97798.28;5036683;28;20135;-85
2023/08/09 03:54:20;;;;;;;13.85;8.38;;;;;;;12.61;100.00;97805.66;5053542;28;20126;-86
2023/08/09 03:56:46;;;;;;;17.75;7.60;;;;;;;12.64;100.00;97802.78;5071077;28;20360;-85
2023/08/09 03:59:11;;;;;;;17.95;7.45;;;;;;;12.66;100.00;97803.53;5053151;28;20059;-86
2023/08/09 04:01:37;;;;;;;11.75;6.55;;;;;;;12.61;100.00;97813.72;5052680;28;20094;-84
2023/08/09 04:04:03;;;;;;;13.82;6.85;;;;;;;12.57;100.00;97815.75;5053150;28;20032;-86
2023/08/09 04:06:29;;;;;;;21.73;7.40;;;;;;;12.61;100.00;97824.44;5052915;28;20032;-84
2023/08/09 04:08:55;;;;;;;25.23;7.40;;;;;;;12.61;100.00;97821.78;5053041;28;20392;-86
2023/08/09 04:11:20;;;;;;;23.05;7.30;;;;;;;12.51;100.00;97824.19;5053261;28;20028;-86
2023/08/09 04:13:46;;;;;;;9.85;7.10;;;;;;;12.45;100.00;97816.53;5053809;28;20025;-86
2023/08/09 04:16:11;;;;;;;36.70;9.38;;;;;;;12.47;100.00;97820.84;5036708;28;20024;-87
2023/08/09 04:18:37;;;;;;;14.80;8.70;;;;;;;12.60;100.00;97828.09;5052935;28;20460;-85
2023/08/09 04:21:03;;;;;;;17.38;7.47;;;;;;;12.94;100.00;97827.59;5052874;28;20025;-84
2023/08/09 04:23:28;;;;;;;10.98;6.85;;;;;;;13.50;100.00;97824.59;5053191;28;20024;-86
2023/08/09 04:25:54;;;;;;;22.83;7.63;;;;;;;13.54;100.00;97814.50;5070541;28;20078;-85
2023/08/09 04:28:19;;;;;;;16.05;7.70;;;;;;;13.60;100.00;97808.69;5070672;28;20035;-86
2023/08/09 04:30:46;;;;;;;11.93;7.13;;;;;;;13.71;100.00;97807.97;5068968;28;20035;-86
2023/08/09 04:33:12;;;;;;;11.55;6.80;;;;;;;13.62;100.00;97805.91;5070695;28;20021;-87
2023/08/09 04:35:38;;;;;;;16.30;6.90;;;;;;;13.43;100.00;97801.81;5052484;28;20102;-86
2023/08/09 04:38:03;;;;;;;15.30;7.10;;;;;;;13.31;100.00;97801.81;5035650;28;20036;-84
2023/08/09 04:40:30;;;;;;;11.82;7.60;;;;;;;13.35;100.00;97809.53;5052453;28;20107;-85
2023/08/09 04:42:55;;;;;;;12.20;8.27;;;;;;;13.38;100.00;97814.69;5052355;28;20024;-85
2023/08/09 04:45:21;;;;;;;13.77;8.07;;;;;;;13.45;100.00;97809.75;5071026;28;20012;-86
2023/08/09 04:47:48;;;;;;;13.82;8.43;;;;;;;13.52;100.00;97805.69;5055527;28;20565;-86
2023/08/09 04:50:13;;;;;;;17.77;7.93;;;;;;;13.58;100.00;97800.75;5074381;28;20024;-74
2023/08/09 04:52:41;;;;;;;24.35;7.65;;;;;;;13.71;100.00;97805.28;5039453;28;20089;-75
2023/08/09 04:55:07;;;;;;;15.02;7.88;;;;;;;13.57;100.00;97782.91;5056097;28;20029;-75
2023/08/09 04:57:33;;;;;;;18.65;10.50;;;;;;;13.87;100.00;97805.91;5039401;28;20412;-75
2023/08/09 04:59:59;;;;;;;16.30;10.80;;;;;;;13.92;100.00;97790.31;5039201;28;20025;-76
2023/08/09 05:02:24;;;;;;;15.57;9.90;;;;;;;13.98;100.00;97796.09;5073943;28;20020;-76
2023/08/09 05:04:50;;;;;;;15.40;7.80;;;;;;;14.08;100.00;97791.78;5038693;28;20084;-75
2023/08/09 05:07:15;;;;;;;26.67;8.68;;;;;;;14.08;100.00;97790.94;5072192;28;20044;-75
2023/08/09 05:09:41;;;;;;;16.58;7.95;;;;;;;14.11;100.00;97788.88;5088903;28;20119;-75
2023/08/09 05:12:07;;;;;;;15.10;7.40;;;;;;;14.12;100.00;97789.72;5073362;28;20085;-75
2023/08/09 05:14:32;;;;;;;11.68;7.13;;;;;;;14.41;100.00;97814.56;5055701;28;20407;-75
2023/08/09 05:16:58;;;;;;;23.23;8.55;;;;;;;14.50;100.00;97792.34;5038144;28;20037;-77
2023/08/09 05:19:24;;;;;;;14.98;7.53;;;;;;;14.53;100.00;97794.81;5072142;28;20028;-75
2023/08/09 05:21:51;;;;;;;19.02;7.78;;;;;;;14.55;100.00;97801.78;5055448;28;20539;-76
2023/08/09 05:24:17;;;;;;;14.23;7.25;;;;;;;14.54;100.00;97807.31;5073195;28;20035;-75
2023/08/09 05:26:42;;;;;;;15.20;7.68;;;;;;;14.46;100.00;97807.84;5037870;28;20040;-76
2023/08/09 05:29:08;;;;;;;10.63;8.30;;;;;;;14.60;100.00;97812.22;5071782;28;20039;-76
2023/08/09 05:31:33;;;;;;;21.85;8.27;;;;;;;14.89;100.00;97815.47;5088887;28;20029;-76
2023/08/09 05:33:59;;;;;;;11.00;7.53;;;;;;;15.28;100.00;97809.75;5055056;28;20039;-76
2023/08/09 05:36:25;;;;;;;10.02;7.78;;;;;;;16.37;100.00;97800.19;5038623;28;20119;-75
2023/08/09 05:38:50;;;;;;;11.23;6.93;;;;;;;18.06;100.00;97793.81;5042423;28;20466;-75
2023/08/09 05:41:16;;;;;;;8.35;6.32;;;;;;;19.96;100.00;97777.09;5054976;28;20085;-76
2023/08/09 05:43:41;;;;;;;9.88;6.70;;;;;;;21.62;100.00;97763.03;5055337;28;20032;-76
2023/08/09 05:46:07;;;;;;;7.18;6.00;;;;;;;22.33;100.00;97748.38;5071363;28;20079;-76
2023/08/09 05:48:33;;;;;;;9.68;5.45;;;;;;;23.35;100.00;97754.47;5038285;28;20032;-76
2023/08/09 05:50:59;;;;;;;13.38;6.07;;;;;;;22.35;100.00;97757.22;5072949;28;20032;-74
2023/08/09 05:53:24;;;;;;;9.25;5.90;;;;;;;21.60;100.00;97764.19;5072927;28;20419;-75
2023/08/09 05:55:50;;;;;;;13.98;6.45;;;;;;;22.80;100.00;97746.00;5037967;28;20035;-75
2023/08/09 05:58:15;;;;;;;6.85;5.13;;;;;;;24.45;90.07;97744.63;5054331;28;20029;-75
2023/08/09 06:00:41;;;;;;;8.18;5.80;;;;;;;25.01;79.57;97738.03;5054778;28;20090;-74
2023/08/09 06:03:07;;;;;;;6.55;5.18;;;;;;;24.68;81.02;97733.75;5054837;28;20380;-74
2023/08/09 06:05:33;;;;;;;10.80;5.30;;;;;;;24.23;85.28;97742.66;5032405;28;20389;-75
2023/08/09 06:07:59;;;;;;;9.10;5.85;;;;;;;24.56;82.67;97743.38;5054689;28;20125;-75
2023/08/09 06:10:25;;;;;;;9.52;6.07;;;;;;;24.50;82.43;97739.47;5036120;28;20020;-75
2023/08/09 06:12:51;;;;;;;14.00;5.32;;;;;;;25.96;74.34;97722.91;5054992;28;20496;-75
2023/08/09 06:15:18;;;;;;;10.05;5.40;;;;;;;25.88;69.00;97725.72;5054652;28;20025;-76
2023/08/09 06:17:43;;;;;;;7.60;5.00;;;;;;;26.65;65.25;97720.75;5048627;28;20064;-75
2023/08/09 06:20:12;;;;;;;8.27;5.40;;;;;;;26.34;66.68;97727.31;5071156;28;20482;-76
2023/08/09 06:22:38;;;;;;;8.15;6.78;;;;;;;25.79;68.91;97737.81;5038250;28;20487;-76
2023/08/09 06:25:05;;;;;;;11.23;5.35;;;;;;;25.66;71.58;97729.34;5036035;28;20108;-76
2023/08/09 06:27:30;;;;;;;6.88;5.13;;;;;;;26.57;65.95;97726.34;5069703;28;20056;-75
2023/08/09 06:29:56;;;;;;;13.63;8.73;;;;;;;27.47;60.69;97713.94;5054480;28;20055;-75
2023/08/09 06:32:21;;;;;;;6.88;5.65;;;;;;;27.63;58.70;97718.28;5050604;28;20457;-75
2023/08/09 06:34:47;;;;;;;8.65;5.93;;;;;;;27.12;59.61;97714.81;5072328;28;20035;-75
2023/08/09 06:37:12;;;;;;;10.73;8.48;;;;;;;26.45;65.23;97705.94;5070803;28;20024;-75
2023/08/09 06:39:39;;;;;;;11.63;8.30;;;;;;;26.22;63.52;97717.00;5054280;28;20106;-75
2023/08/09 06:42:04;;;;;;;12.23;7.70;;;;;;;25.91;68.63;97729.97;5070738;28;20345;-76
2023/08/09 06:44:30;;;;;;;10.10;6.40;;;;;;;26.69;63.57;97708.34;5053858;28;20123;-76
2023/08/09 06:46:56;;;;;;;9.60;5.93;;;;;;;26.85;61.55;97703.53;5070854;28;20067;-76
2023/08/09 06:49:22;;;;;;;10.10;6.38;;;;;;;25.03;70.39;97708.59;5054061;28;20120;-76
2023/08/09 06:51:48;;;;;;;8.93;5.55;;;;;;;24.40;75.38;97718.81;5054044;28;20024;-76
2023/08/09 06:54:13;;;;;;;11.05;5.53;;;;;;;25.54;71.30;97728.09;5053570;28;20034;-75
2023/08/09 06:56:39;;;;;;;36.42;7.28;;;;;;;27.19;60.35;97705.59;5053891;28;20190;-74
2023/08/09 06:59:05;;;;;;;8.85;6.88;;;;;;;27.22;57.70;97683.22;5053520;28;20545;-75
2023/08/09 07:01:31;;;;;;;12.55;7.03;;;;;;;26.14;63.41;97697.88;5053913;28;20118;-75
2023/08/09 07:03:56;;;;;;;9.70;5.65;;;;;;;27.62;58.08;97697.38;5049342;28;20024;-75
2023/08/09 07:06:23;;;;;;;8.10;4.70;;;;;;;26.92;56.22;97698.09;5069743;28;20036;-75
2023/08/09 07:08:49;;;;;;;14.52;4.45;;;;;;;27.87;54.77;97679.38;5036725;28;20036;-75
2023/08/09 07:11:14;;;;;;;8.90;3.97;;;;;;;26.65;57.58;97690.56;5052520;28;20396;-74
2023/08/09 07:13:40;;;;;;;8.77;4.38;;;;;;;27.61;55.67;97684.66;5037063;28;20028;-75
2023/08/09 07:16:05;;;;;;;4.30;3.90;;;;;;;27.01;55.72;97679.63;5036946;28;20520;-75
2023/08/09 07:18:31;;;;;;;6.28;4.10;;;;;;;27.29;56.54;97695.13;5053261;28;20484;-75
2023/08/09 07:20:57;;;;;;;4.90;3.35;;;;;;;28.37;52.49;97678.25;5053421;28;20024;-75
2023/08/09 07:23:24;;;;;;;7.07;3.83;;;;;;;28.82;51.46;97683.16;5053467;28;20112;-75
2023/08/09 07:25:49;;;;;;;3.10;2.90;;;;;;;27.38;51.75;97677.44;5071375;28;20064;-75
2023/08/09 07:28:15;;;;;;;3.50;3.20;;;;;;;27.34;51.24;97673.41;5053316;28;20052;-75
2023/08/09 07:30:51;;;;;;;5.53;3.50;;;;;;;26.95;52.40;97663.94;5089191;27;20407;-75
2023/08/09 07:33:16;;;;;;;34.00;3.83;;;;;;;27.78;51.41;97659.41;5042746;27;20025;-74
2023/08/09 07:35:42;;;;;;;6.00;2.92;;;;;;;29.17;48.92;97661.81;5043242;27;20396;-74
2023/08/09 07:38:07;;;;;;;9.32;3.30;;;;;;;29.82;47.70;97651.94;5029989;28;20035;-73
2023/08/09 07:40:33;;;;;;;6.30;3.28;;;;;;;29.91;46.88;97656.19;5054447;28;20085;-74
2023/08/09 07:43:00;;;;;;;6.82;3.17;;;;;;;30.75;45.64;97650.66;5060943;28;20021;-74
2023/08/09 07:45:26;;;;;;;4.07;2.60;;;;;;;30.84;44.27;97638.28;5061186;28;20021;-74
2023/08/09 07:47:51;;;;;;;4.95;3.03;;;;;;;30.24;45.56;97645.09;5045079;27;20116;-74
2023/08/09 07:50:17;;;;;;;3.10;2.80;;;;;;;31.56;42.79;97644.25;5055401;28;20025;-75
2023/08/09 07:52:42;;;;;;;5.57;3.30;;;;;;;32.64;39.95;97634.44;5046484;27;20107;-74
2023/08/09 07:55:08;;;;;;;2.47;2.28;;;;;;;32.81;39.24;97628.28;5029517;28;20025;-74
2023/08/09 07:57:34;;;;;;;6.63;2.78;;;;;;;32.24;39.42;97624.06;5047473;27;20021;-74
2023/08/09 08:00:05;;;;;;;2.55;2.35;;;;;;;32.30;38.79;97615.69;5042767;28;20432;-74
2023/08/09 08:02:30;;;;;;;4.18;2.83;;;;;;;31.55;40.59;97616.81;5042949;28;20029;-74
2023/08/09 08:04:56;;;;;;;3.30;3.00;;;;;;;31.59;40.77;97618.06;5043884;27;20037;-74
2023/08/09 08:07:21;;;;;;;4.70;2.55;;;;;;;31.22;41.79;97621.72;5055348;28;20031;-74
2023/08/09 08:09:47;;;;;;;4.43;2.97;;;;;;;31.54;41.42;97602.13;5045673;28;20029;-74
2023/08/09 08:12:13;;;;;;;3.17;2.35;;;;;;;33.58;38.48;97606.00;5062612;28;20036;-75
2023/08/09 08:14:39;;;;;;;9.73;2.90;;;;;;;33.12;38.74;97603.13;5062957;28;20088;-75
2023/08/09 08:17:04;;;;;;;8.48;3.00;;;;;;;33.45;38.31;97597.03;5045680;28;20040;-74
2023/08/09 08:19:30;;;;;;;2.42;2.22;;;;;;;33.12;37.62;97598.44;5044258;27;20029;-74
2023/08/09 08:21:55;;;;;;;5.43;3.58;;;;;;;33.64;37.25;97602.31;5042227;28;20029;-74
2023/08/09 08:24:21;;;;;;;3.90;2.20;;;;;;;31.09;40.56;97601.41;5042328;27;20549;-73
2023/08/09 08:26:46;;;;;;;4.95;2.95;;;;;;;32.14;39.55;97596.91;5064110;28;20037;-74
2023/08/09 08:29:12;;;;;;;2.70;2.50;;;;;;;30.95;40.51;97601.69;5025956;28;20114;-74
2023/08/09 08:31:37;;;;;;;2.35;2.15;;;;;;;29.50;43.02;97613.09;5056562;28;20032;-74
2023/08/09 08:34:03;;;;;;;6.57;2.63;;;;;;;29.74;43.67;97610.78;5061973;28;20040;-74
2023/08/09 08:36:29;;;;;;;2.65;2.45;;;;;;;31.72;40.92;97597.75;5063129;28;20107;-75
2023/08/09 08:38:54;;;;;;;11.27;3.17;;;;;;;32.68;39.87;97602.44;5062142;28;20025;-74
2023/08/09 08:41:20;;;;;;;6.63;4.38;;;;;;;33.60;38.09;97601.06;5045947;27;20090;-75
2023/08/09 08:43:46;;;;;;;2.25;2.05;;;;;;;33.48;37.71;97599.34;5012149;28;20523;-75
2023/08/09 08:46:16;;;;;;;2.38;2.05;;;;;;;33.65;37.59;97589.28;5037280;28;20523;-77
2023/08/09 08:48:47;;;;;;;3.17;2.22;;;;;;;35.38;36.20;97597.50;5030846;28;20053;-76
2023/08/09 08:51:13;;;;;;;3.28;2.33;;;;;;;34.69;35.82;97586.41;5042347;28;20105;-76
2023/08/09 08:53:40;;;;;;;5.28;2.33;;;;;;;32.81;38.21;97583.91;5038352;28;20518;-74
2023/08/09 08:56:06;;;;;;;11.05;2.63;;;;;;;33.06;38.11;97590.16;5048447;28;20028;-75
2023/08/09 08:58:32;;;;;;;2.50;2.25;;;;;;;32.29;39.49;97589.06;5031562;28;20489;-76
2023/08/09 09:00:58;;;;;;;2.85;2.10;;;;;;;33.19;38.00;97592.78;5028506;28;20174;-75
2023/08/09 09:03:23;;;;;;;3.50;1.85;;;;;;;33.13;37.72;97575.13;5028409;28;20029;-75
2023/08/09 09:05:49;;;;;;;2.35;1.70;;;;;;;34.14;36.37;97568.53;5018358;28;20036;-76
2023/08/09 09:08:15;;;;;;;5.25;2.40;;;;;;;34.77;36.05;97572.13;5047783;27;20036;-75
2023/08/09 09:10:44;;;;;;;4.80;1.90;;;;;;;34.64;35.74;97569.63;5028154;28;20062;-74
2023/08/09 09:13:22;;;;;;;3.38;1.90;;;;;;;35.73;34.57;97565.56;5028287;28;20029;-74
2023/08/09 09:15:49;;;;;;;3.75;2.13;;;;;;;35.52;34.71;97560.72;5029469;28;20056;-74
2023/08/09 09:18:15;;;;;;;1.98;1.88;;;;;;;35.84;33.94;97559.03;5011788;28;20507;-75
2023/08/09 09:20:40;;;;;;;2.00;1.80;;;;;;;36.51;32.65;97553.31;5027965;28;20030;-75
2023/08/09 09:23:06;;;;;;;2.28;1.75;;;;;;;37.06;31.95;97547.59;5011801;28;20041;-75
2023/08/09 09:25:31;;;;;;;2.30;2.10;;;;;;;35.66;33.61;97550.94;5029194;28;20044;-75
2023/08/09 09:27:58;;;;;;;1.77;1.67;;;;;;;37.68;31.46;97531.16;5028121;28;20029;-76
2023/08/09 09:30:25;;;;;;;3.90;1.73;;;;;;;38.30;30.54;97533.22;5027752;28;20397;-74
2023/08/09 09:32:53;;;;;;;2.00;1.70;;;;;;;37.53;31.27;97539.41;5027860;28;20029;-76
2023/08/09 09:35:25;;;;;;;1.80;1.70;;;;;;;35.08;33.54;97536.53;5029173;28;20560;-76
2023/08/09 09:37:52;;;;;;;4.28;1.92;;;;;;;34.12;34.12;97532.63;5027838;28;20033;-75
2023/08/09 09:40:32;;;;;;;2.83;2.00;;;;;;;32.97;36.52;97541.69;5011336;28;20030;-75
2023/08/09 09:42:59;;;;;;;2.15;1.98;;;;;;;35.59;33.95;97522.47;5029176;28;20052;-74
2023/08/09 09:45:27;;;;;;;4.00;1.88;;;;;;;36.31;32.87;97526.00;5027564;28;20021;-75
2023/08/09 09:47:54;;;;;;;2.10;2.00;;;;;;;36.69;32.35;97513.97;5015807;28;20108;-75
2023/08/09 09:50:25;;;;;;;4.82;1.92;;;;;;;37.30;32.31;97517.38;5047713;28;20033;-75
2023/08/09 09:52:52;;;;;;;2.10;1.90;;;;;;;34.75;34.49;97510.34;5046751;28;20510;-75
2023/08/09 09:55:20;;;;;;;2.15;1.95;;;;;;;36.32;32.61;97508.19;5040010;28;20029;-74
2023/08/09 09:57:47;;;;;;;1.98;1.80;;;;;;;37.39;31.93;97505.47;5027079;28;20492;-74
2023/08/09 10:00:14;;;;;;;3.83;1.90;;;;;;;37.67;31.22;97498.72;5027646;28;20024;-75
2023/08/09 10:02:50;;;;;;;1.80;1.70;;;;;;;38.45;30.67;97491.38;5029821;28;20090;-75
2023/08/09 10:05:29;;;;;;;5.63;2.20;;;;;;;37.72;31.57;97481.13;5030900;28;20399;-74
2023/08/09 10:07:56;;;;;;;20.77;2.10;;;;;;;38.79;30.44;97480.59;5047535;28;20518;-74
2023/08/09 10:10:22;;;;;;;4.90;1.80;;;;;;;38.83;30.11;97482.53;5047299;28;20488;-75
2023/08/09 10:12:51;;;;;;;1.67;1.58;;;;;;;40.27;28.55;97471.84;5030546;28;20081;-75
2023/08/09 10:15:18;;;;;;;1.90;1.75;;;;;;;38.18;30.50;97465.53;5047219;28;20599;-75
2023/08/09 10:17:45;;;;;;;5.85;2.00;;;;;;;37.37;31.39;97471.41;5044493;28;20119;-74
2023/08/09 10:20:12;;;;;;;1.60;1.50;;;;;;;39.34;29.79;97463.03;5027365;28;20029;-75
2023/08/09 10:22:38;;;;;;;2.00;1.80;;;;;;;39.06;29.39;97457.97;5027343;28;20488;-75
2023/08/09 10:25:04;;;;;;;6.47;1.80;;;;;;;39.74;28.79;97462.16;5027090;28;20028;-75
2023/08/09 10:27:49;;;;;;;7.00;1.70;;;;;;;38.96;29.44;97465.22;5027426;28;20141;-75
2023/08/09 10:30:19;;;;;;;1.85;1.70;;;;;;;39.09;29.45;97460.19;5028137;28;20045;-75
2023/08/09 10:32:57;;;;;;;2.20;1.55;;;;;;;39.15;29.32;97440.31;5027017;28;20086;-75
2023/08/09 10:35:46;;;;;;;3.17;1.85;;;;;;;40.10;28.32;97444.16;5031641;28;20021;-76
2023/08/09 10:38:13;;;;;;;2.22;2.00;;;;;;;38.46;29.50;97435.16;5032890;28;20112;-75
2023/08/09 10:40:41;;;;;;;2.08;1.70;;;;;;;40.08;28.12;97438.81;5010444;28;20021;-74
2023/08/09 10:43:08;;;;;;;5.30;1.83;;;;;;;41.21;26.82;97428.63;5026685;28;20400;-75
2023/08/09 10:45:34;;;;;;;1.88;1.67;;;;;;;38.18;29.73;97429.19;5032501;28;20029;-74
2023/08/09 10:48:36;;;;;;;3.85;2.20;;;;;;;36.80;31.50;97439.59;5037185;28;20048;-74
2023/08/09 10:51:07;;;;;;;10.40;5.78;;;;;;;37.09;31.37;97423.44;4986468;28;20031;-74
2023/08/09 10:53:57;;;;;;;3.25;2.00;;;;;;;35.63;32.24;97434.53;5019864;28;20466;-74
2023/08/09 10:56:34;;;;;;;2.75;2.17;;;;;;;35.00;33.89;97428.47;5017880;28;20042;-74
2023/08/09 10:59:13;;;;;;;2.20;2.00;;;;;;;35.77;33.55;97430.28;5024105;28;20018;-73
2023/08/09 11:01:39;;;;;;;5.90;2.40;;;;;;;36.99;32.18;97426.13;5026730;28;20061;-74
2023/08/09 11:04:10;;;;;;;3.47;2.05;;;;;;;37.30;31.58;97416.88;5026174;28;20449;-74
2023/08/09 11:06:38;;;;;;;7.63;2.00;;;;;;;38.26;30.67;97412.72;5026393;28;20078;-74
2023/08/09 11:09:08;;;;;;;4.07;2.20;;;;;;;39.19;29.30;97410.66;5035465;28;20036;-74
2023/08/09 11:11:35;;;;;;;2.10;1.80;;;;;;;40.89;28.10;97407.50;5029874;28;20021;-74
2023/08/09 11:14:04;;;;;;;2.45;2.22;;;;;;;40.84;27.86;97407.56;5046271;28;20103;-75
2023/08/09 11:16:30;;;;;;;5.97;2.00;;;;;;;40.04;28.40;97404.06;5047730;28;20032;-74
2023/08/09 11:19:07;;;;;;;4.55;1.83;;;;;;;36.89;31.86;97404.53;5029498;28;20024;-74
2023/08/09 11:21:48;;;;;;;2.85;1.95;;;;;;;36.81;31.67;97400.28;5033490;28;20096;-74
2023/08/09 11:24:16;;;;;;;3.47;2.05;;;;;;;37.95;30.81;97395.00;5030671;28;20044;-75